createdAt,value
2022-11-23T00:00:33.042Z,12.58
2022-11-23T00:03:02.214Z,11.48
2022-11-23T00:05:33.503Z,12.43
2022-11-23T00:08:03.666Z,13.05
2022-11-23T00:10:34.195Z,14.53
2022-11-23T00:13:04.323Z,12.00
2022-11-23T00:15:35.728Z,12.05
2022-11-23T00:18:06.744Z,13.45
2022-11-23T00:20:38.735Z,12.40
2022-11-23T00:23:07.750Z,11.70
2022-11-23T00:25:36.984Z,12.80
2022-11-23T00:28:07.892Z,13.68
2022-11-23T00:30:38.807Z,12.43
2022-11-23T00:33:09.449Z,12.82
2022-11-23T00:35:38.838Z,13.98
2022-11-23T00:38:08.582Z,11.55
2022-11-23T00:40:39.159Z,12.98
2022-11-23T00:43:08.979Z,11.78
2022-11-23T00:45:38.561Z,12.43
2022-11-23T00:48:11.638Z,13.95
2022-11-23T00:50:42.910Z,13.28
2022-11-23T00:53:13.327Z,13.62
2022-11-23T00:55:47.032Z,14.70
2022-11-23T00:58:17.973Z,14.53
2022-11-23T01:00:47.711Z,15.30
2022-11-23T01:03:17.688Z,14.70
2022-11-23T01:05:47.431Z,14.47
2022-11-23T01:08:17.407Z,12.98
2022-11-23T01:10:46.988Z,11.97
2022-11-23T01:13:17.009Z,14.98
2022-11-23T01:15:50.582Z,14.20
2022-11-23T01:18:22.206Z,12.45
2022-11-23T01:20:53.082Z,11.88
2022-11-23T01:23:23.905Z,11.05
2022-11-23T01:25:57.207Z,13.65
2022-11-23T01:28:27.178Z,12.50
2022-11-23T01:31:10.434Z,11.40
2022-11-23T01:33:42.244Z,13.60
2022-11-23T01:36:18.164Z,15.38
2022-11-23T01:41:25.439Z,13.93
2022-11-23T01:43:55.263Z,12.60
2022-11-23T01:46:26.587Z,14.85
2022-11-23T01:49:04.337Z,14.05
2022-11-23T01:51:40.991Z,12.78
2022-11-23T01:54:15.900Z,13.83
2022-11-23T01:56:48.997Z,15.10
2022-11-23T01:59:19.586Z,14.53
2022-11-23T02:01:49.037Z,14.38
2022-11-23T02:04:31.320Z,15.32
2022-11-23T02:07:01.907Z,15.30
2022-11-23T02:09:32.723Z,15.38
2022-11-23T02:12:04.097Z,18.45
2022-11-23T02:14:35.107Z,17.02
2022-11-23T02:17:04.828Z,18.52
2022-11-23T02:19:58.382Z,14.50
2022-11-23T02:22:54.928Z,15.10
2022-11-23T02:25:48.702Z,18.00
2022-11-23T02:28:26.010Z,14.93
2022-11-23T02:30:55.823Z,12.03
2022-11-23T02:33:28.027Z,16.00
2022-11-23T02:36:01.008Z,16.35
2022-11-23T02:38:42.218Z,16.12
2022-11-23T02:41:12.646Z,14.28
2022-11-23T02:43:42.562Z,15.05
2022-11-23T02:46:13.935Z,15.00
2022-11-23T02:48:43.791Z,15.43
2022-11-23T02:51:13.971Z,14.40
2022-11-23T02:53:43.995Z,16.93
2022-11-23T02:56:13.640Z,15.85
2022-11-23T02:58:44.365Z,15.30
2022-11-23T03:01:13.958Z,15.38
2022-11-23T03:03:45.365Z,17.05
2022-11-23T03:06:15.112Z,16.15
2022-11-23T03:08:45.331Z,17.90
2022-11-23T03:11:17.698Z,17.07
2022-11-23T03:13:48.462Z,19.52
2022-11-23T03:16:19.838Z,19.62
2022-11-23T03:18:51.125Z,15.98
2022-11-23T03:21:21.721Z,14.70
2022-11-23T03:23:51.763Z,12.93
2022-11-23T03:26:23.125Z,13.78
2022-11-23T03:28:55.236Z,11.70
2022-11-23T03:31:28.457Z,14.60
2022-11-23T03:33:59.370Z,17.00
2022-11-23T03:36:28.877Z,17.25
2022-11-23T03:38:59.856Z,14.05
2022-11-23T03:41:34.598Z,13.68
2022-11-23T03:44:04.530Z,11.38
2022-11-23T03:46:35.425Z,10.58
2022-11-23T03:49:05.464Z,11.40
2022-11-23T03:51:35.181Z,9.33
2022-11-23T03:54:05.669Z,12.33
2022-11-23T03:56:36.408Z,10.53
2022-11-23T03:59:06.734Z,12.33
2022-11-23T04:01:36.363Z,12.85
2022-11-23T04:04:08.020Z,11.78
2022-11-23T04:06:39.569Z,12.58
2022-11-23T04:09:14.751Z,12.80
2022-11-23T04:11:52.813Z,16.32
2022-11-23T04:14:23.390Z,14.38
2022-11-23T04:16:54.112Z,13.28
2022-11-23T04:19:24.721Z,13.30
2022-11-23T04:21:54.576Z,12.98
2022-11-23T04:24:25.971Z,13.50
2022-11-23T04:26:56.828Z,14.80
2022-11-23T04:29:27.710Z,10.53
2022-11-23T04:31:56.584Z,10.82
2022-11-23T04:34:26.292Z,11.75
2022-11-23T04:36:57.261Z,11.50
2022-11-23T04:39:30.014Z,10.20
2022-11-23T04:42:15.422Z,10.53
2022-11-23T04:44:46.752Z,12.80
2022-11-23T04:47:16.229Z,11.53
2022-11-23T04:49:47.192Z,11.73
2022-11-23T04:52:19.299Z,12.50
2022-11-23T04:54:50.956Z,11.80
2022-11-23T04:57:20.015Z,12.58
2022-11-23T04:59:50.368Z,15.38
2022-11-23T05:02:19.464Z,13.40
2022-11-23T05:04:53.371Z,11.70
2022-11-23T05:07:22.997Z,11.18
2022-11-23T05:09:55.099Z,11.78
2022-11-23T05:12:26.003Z,11.68
2022-11-23T05:14:56.327Z,12.90
2022-11-23T05:17:29.592Z,14.03
2022-11-23T05:19:59.219Z,13.10
2022-11-23T05:22:31.432Z,14.07
2022-11-23T05:25:01.275Z,14.53
2022-11-23T05:27:31.637Z,10.25
2022-11-23T05:30:01.065Z,11.57
2022-11-23T05:32:29.976Z,11.85
2022-11-23T05:35:00.239Z,10.68
2022-11-23T05:37:31.767Z,11.43
2022-11-23T05:40:02.621Z,13.60
2022-11-23T05:42:33.970Z,12.07
2022-11-23T05:47:51.499Z,10.30
2022-11-23T05:50:24.671Z,10.80
2022-11-23T05:52:58.961Z,10.95
2022-11-23T05:55:29.061Z,12.63
2022-11-23T05:57:59.647Z,13.13
2022-11-23T06:00:30.227Z,13.08
2022-11-23T06:03:01.501Z,14.25
2022-11-23T06:05:31.406Z,11.68
2022-11-23T06:08:00.540Z,12.33
2022-11-23T06:10:31.153Z,17.07
2022-11-23T06:13:04.647Z,15.72
2022-11-23T06:15:35.380Z,13.10
2022-11-23T06:18:06.032Z,16.95
2022-11-23T06:20:37.099Z,16.32
2022-11-23T06:23:08.040Z,16.65
2022-11-23T06:25:39.047Z,17.98
2022-11-23T06:28:20.180Z,21.65
2022-11-23T06:30:50.285Z,20.88
2022-11-23T06:33:20.729Z,17.35
2022-11-23T06:35:56.771Z,22.13
2022-11-23T06:38:27.972Z,13.40
2022-11-23T06:41:11.440Z,13.90
2022-11-23T06:43:41.945Z,20.37
2022-11-23T06:46:10.974Z,20.32
2022-11-23T06:48:45.773Z,15.68
2022-11-23T06:51:15.582Z,12.50
2022-11-23T06:53:45.420Z,20.55
2022-11-23T06:56:15.681Z,17.60
2022-11-23T06:58:45.440Z,12.20
2022-11-23T07:01:16.759Z,13.35
2022-11-23T07:03:48.079Z,16.35
2022-11-23T07:06:19.270Z,17.65
2022-11-23T07:08:50.816Z,18.82
2022-11-23T07:11:23.500Z,18.32
2022-11-23T07:13:52.894Z,14.18
2022-11-23T07:16:22.114Z,14.90
2022-11-23T07:18:52.056Z,18.23
2022-11-23T07:21:22.024Z,17.48
2022-11-23T07:23:54.055Z,16.50
2022-11-23T07:26:24.666Z,17.65
2022-11-23T07:28:54.673Z,16.70
2022-11-23T07:31:24.558Z,15.83
2022-11-23T07:33:55.540Z,21.07
2022-11-23T07:36:25.109Z,18.12
2022-11-23T07:38:57.053Z,18.55
2022-11-23T07:41:28.160Z,17.90
2022-11-23T07:44:02.704Z,18.17
2022-11-23T07:46:33.197Z,17.40
2022-11-23T07:49:04.562Z,17.15
2022-11-23T07:51:36.769Z,18.32
2022-11-23T07:54:07.101Z,19.45
2022-11-23T07:56:38.240Z,18.10
2022-11-23T07:59:09.292Z,22.07
2022-11-23T08:01:40.667Z,19.07
2022-11-23T08:04:11.347Z,19.17
2022-11-23T10:51:58.560Z,29.05
2022-11-23T10:54:34.149Z,27.93
2022-11-23T10:57:30.766Z,28.17
2022-11-23T11:00:19.056Z,27.27
2022-11-23T11:02:54.995Z,26.52
2022-11-23T11:06:07.496Z,26.15
2022-11-23T11:08:25.068Z,28.47
2022-11-23T11:11:12.277Z,28.95
2022-11-23T11:13:47.761Z,30.45
2022-11-23T11:16:37.254Z,32.17
2022-11-23T11:19:32.848Z,33.38
2022-11-23T11:22:08.815Z,28.35
2022-11-23T11:24:45.868Z,32.83
2022-11-23T11:27:20.566Z,32.05
2022-11-23T11:29:53.462Z,30.37
2022-11-23T11:32:52.291Z,34.10
2022-11-23T11:35:35.796Z,33.98
2022-11-23T11:38:19.888Z,31.80
2022-11-23T11:40:52.036Z,31.37
2022-11-23T11:43:39.170Z,36.03
2022-11-23T11:48:59.254Z,36.25
2022-11-23T11:51:40.511Z,35.78
2022-11-23T11:54:20.777Z,35.73
2022-11-23T11:56:52.265Z,33.48
2022-11-23T11:59:44.292Z,29.57
2022-11-23T12:02:23.013Z,40.08
2022-11-23T12:05:15.831Z,38.15
2022-11-23T12:08:03.423Z,37.08
2022-11-23T12:10:57.203Z,40.35
2022-11-23T12:13:35.117Z,37.50
2022-11-23T12:16:47.694Z,33.42
2022-11-23T12:19:26.559Z,36.40
2022-11-23T12:22:09.898Z,38.40
2022-11-23T12:25:09.878Z,37.05
2022-11-23T12:28:00.663Z,38.67
2022-11-23T12:43:24.286Z,39.55
2022-11-23T12:46:21.263Z,41.45
2022-11-23T12:49:14.286Z,36.75
2022-11-23T12:52:19.527Z,36.58
2022-11-23T12:54:59.287Z,44.77
2022-11-23T12:57:47.972Z,40.78
2022-11-23T13:00:39.560Z,39.48
2022-11-23T13:03:40.836Z,42.27
2022-11-23T13:07:12.360Z,41.18
2022-11-23T13:33:51.668Z,43.70
2022-11-23T13:47:23.074Z,82.97
2022-11-23T13:50:19.699Z,72.72
2022-11-23T13:52:53.806Z,68.47
2022-11-23T13:55:37.370Z,68.90
2022-11-23T13:58:32.315Z,77.42
2022-11-23T14:01:02.973Z,72.50
2022-11-23T14:03:49.461Z,67.15
2022-11-23T14:06:55.841Z,65.70
2022-11-23T14:09:54.727Z,68.70
2022-11-23T14:12:54.456Z,56.75
2022-11-23T14:19:26.369Z,54.08
2022-11-23T14:22:10.111Z,49.93
2022-11-23T14:25:01.534Z,54.58
2022-11-23T14:27:48.923Z,54.40
2022-11-23T14:30:24.414Z,50.58
2022-11-23T14:33:18.180Z,48.15
2022-11-23T14:35:55.502Z,44.33
2022-11-23T14:38:46.688Z,42.98
2022-11-23T14:41:37.384Z,43.70
2022-11-23T14:44:15.040Z,44.38
2022-11-23T14:47:05.882Z,36.33
2022-11-23T14:49:38.758Z,44.98
2022-11-23T14:52:27.905Z,41.75
2022-11-23T14:55:05.270Z,43.75
2022-11-23T14:57:43.918Z,43.17
2022-11-23T15:00:44.104Z,47.73
2022-11-23T15:06:14.426Z,43.30
2022-11-23T15:09:26.934Z,43.78
2022-11-23T15:12:28.805Z,40.70
2022-11-23T15:14:59.692Z,39.13
2022-11-23T15:17:31.132Z,41.28
2022-11-23T15:20:03.037Z,41.55
2022-11-23T15:22:41.004Z,41.08
2022-11-23T15:25:20.504Z,41.40
2022-11-23T15:27:53.329Z,45.43
2022-11-23T15:30:30.893Z,45.55
2022-11-23T15:33:16.244Z,44.30
2022-11-23T15:35:48.592Z,47.93
2022-11-23T15:38:24.903Z,48.30
2022-11-23T15:41:00.916Z,42.70
2022-11-23T15:43:37.406Z,47.25
2022-11-23T15:46:16.635Z,48.90
2022-11-23T15:51:37.866Z,45.52
2022-11-23T15:54:27.870Z,95.30
2022-11-23T15:56:59.389Z,60.80
2022-11-23T15:59:37.967Z,44.70
2022-11-23T16:02:25.213Z,53.95
2022-11-23T16:05:16.899Z,45.90
2022-11-23T16:07:58.224Z,46.50
2022-11-23T16:10:32.436Z,43.42
2022-11-23T16:13:05.628Z,43.75
2022-11-23T16:15:42.380Z,41.45
2022-11-23T16:18:23.569Z,40.88
2022-11-23T16:20:58.671Z,55.35
2022-11-23T16:23:38.801Z,51.85
2022-11-23T16:26:08.048Z,50.52
2022-11-23T16:28:39.653Z,53.33
2022-11-23T16:31:31.634Z,49.18
2022-11-23T16:34:02.237Z,62.60
2022-11-23T16:36:31.763Z,55.75
2022-11-23T16:39:05.390Z,54.55
2022-11-23T16:41:32.114Z,58.08
2022-11-23T16:44:01.301Z,60.23
2022-11-23T16:46:32.729Z,49.55
2022-11-23T16:49:01.826Z,46.70
2022-11-23T16:51:31.736Z,46.68
2022-11-23T16:54:20.464Z,44.35
2022-11-23T16:56:32.366Z,41.28
2022-11-23T16:59:03.297Z,45.73
2022-11-23T17:01:32.420Z,40.95
2022-11-23T17:04:02.324Z,43.38
2022-11-23T17:06:31.193Z,44.67
2022-11-23T17:09:07.633Z,46.90
2022-11-23T17:11:33.011Z,47.75
2022-11-23T17:14:02.929Z,42.95
2022-11-23T17:16:34.284Z,46.28
2022-11-23T17:19:04.191Z,45.90
2022-11-23T17:21:33.293Z,45.17
2022-11-23T17:24:03.299Z,48.52
2022-11-23T17:26:42.821Z,49.53
2022-11-23T17:29:19.286Z,46.85
2022-11-23T17:31:49.171Z,44.93
2022-11-23T17:34:20.791Z,47.83
2022-11-23T17:36:52.665Z,43.42
2022-11-23T17:39:26.099Z,41.42
2022-11-23T17:42:04.355Z,44.10
2022-11-23T17:44:31.351Z,42.93
2022-11-23T17:47:01.927Z,45.10
2022-11-23T17:49:33.162Z,45.12
2022-11-23T17:52:02.286Z,46.10
2022-11-23T17:54:31.452Z,43.98
2022-11-23T17:57:00.436Z,40.73
2022-11-23T17:59:29.327Z,39.85
2022-11-23T18:01:58.452Z,38.60
2022-11-23T18:04:27.733Z,40.03
2022-11-23T18:06:56.888Z,45.90
2022-11-23T18:09:25.927Z,45.20
2022-11-23T18:11:55.940Z,37.10
2022-11-23T18:14:26.767Z,38.65
2022-11-23T18:16:56.680Z,39.98
2022-11-23T18:19:25.437Z,44.70
2022-11-23T18:21:54.075Z,36.10
2022-11-23T18:24:23.010Z,38.38
2022-11-23T18:26:53.736Z,35.92
2022-11-23T18:29:22.792Z,39.42
2022-11-23T18:31:53.319Z,43.20
2022-11-23T18:34:23.202Z,38.92
2022-11-23T18:36:52.071Z,40.23
2022-11-23T18:39:22.522Z,42.53
2022-11-23T18:41:52.724Z,41.58
2022-11-23T18:44:22.442Z,46.40
2022-11-23T18:46:51.951Z,46.53
2022-11-23T18:49:21.309Z,43.50
2022-11-23T18:51:51.065Z,47.35
2022-11-23T18:54:22.098Z,49.77
2022-11-23T18:56:51.476Z,48.75
2022-11-23T18:59:42.509Z,54.70
2022-11-23T19:01:52.230Z,46.88
2022-11-23T19:04:21.193Z,41.90
2022-11-23T19:06:49.973Z,39.83
2022-11-23T19:09:19.408Z,44.63
2022-11-23T19:11:51.835Z,47.80
2022-11-23T19:14:20.756Z,44.85
2022-11-23T19:16:49.715Z,41.18
2022-11-23T19:19:20.005Z,38.78
2022-11-23T19:21:48.820Z,41.28
2022-11-23T19:24:20.014Z,42.55
2022-11-23T19:26:49.097Z,41.08
2022-11-23T19:29:32.716Z,33.83
2022-11-23T19:31:51.905Z,45.12
2022-11-23T19:34:20.858Z,51.00
2022-11-23T19:36:49.746Z,40.67
2022-11-23T19:39:18.536Z,45.25
2022-11-23T19:41:47.800Z,46.50
2022-11-23T19:44:16.863Z,45.75
2022-11-23T19:46:45.455Z,42.93
2022-11-23T19:49:15.257Z,43.65
2022-11-23T19:51:45.410Z,43.55
2022-11-23T19:54:14.337Z,45.00
2022-11-23T19:56:43.250Z,43.70
2022-11-23T19:59:12.076Z,41.60
2022-11-23T20:01:42.195Z,40.98
2022-11-23T20:04:11.174Z,42.83
2022-11-23T20:06:42.001Z,48.63
2022-11-23T20:09:21.089Z,48.20
2022-11-23T20:11:51.564Z,42.80
2022-11-23T20:14:21.246Z,50.00
2022-11-23T20:16:50.646Z,51.80
2022-11-23T20:19:20.663Z,50.90
2022-11-23T20:21:49.687Z,46.75
2022-11-23T20:24:18.519Z,43.87
2022-11-23T20:26:47.433Z,46.70
2022-11-23T20:29:17.105Z,48.48
2022-11-23T20:31:45.959Z,46.00
2022-11-23T20:34:20.461Z,48.10
2022-11-23T20:36:45.787Z,48.20
2022-11-23T20:39:16.336Z,50.45
2022-11-23T20:41:49.082Z,50.98
2022-11-23T20:44:19.015Z,54.70
2022-11-23T20:47:04.084Z,49.38
2022-11-23T20:49:19.196Z,50.80
2022-11-23T20:51:48.170Z,50.08
2022-11-23T20:54:16.912Z,47.20
2022-11-23T20:56:45.708Z,51.55
2022-11-23T20:59:14.883Z,46.60
2022-11-23T21:01:45.019Z,47.78
2022-11-23T21:04:14.325Z,45.43
2022-11-23T21:06:43.424Z,50.10
2022-11-23T21:09:12.265Z,41.58
2022-11-23T21:12:00.367Z,43.95
2022-11-23T21:14:31.218Z,41.23
2022-11-23T21:17:00.422Z,41.05
2022-11-23T21:19:39.053Z,40.05
2022-11-23T21:22:11.305Z,39.63
2022-11-23T21:24:40.164Z,41.77
2022-11-23T21:27:11.917Z,42.10
2022-11-23T21:29:41.171Z,40.83
2022-11-23T21:32:10.195Z,39.05
2022-11-23T21:34:40.498Z,36.98
2022-11-23T21:37:12.571Z,36.95
2022-11-23T21:39:41.577Z,39.67
2022-11-23T21:42:11.877Z,39.70
2022-11-23T21:44:40.681Z,39.85
2022-11-23T21:47:09.335Z,37.25
2022-11-23T21:49:38.198Z,42.45
2022-11-23T21:52:08.807Z,40.23
2022-11-23T21:54:37.545Z,39.73
2022-11-23T21:57:07.690Z,35.50
2022-11-23T21:59:39.548Z,41.68
2022-11-23T22:02:11.717Z,40.25
2022-11-23T22:04:40.616Z,47.53
2022-11-23T22:07:09.561Z,39.48
2022-11-23T22:09:38.805Z,39.33
2022-11-23T22:12:08.241Z,36.28
2022-11-23T22:14:37.984Z,38.75
2022-11-23T22:17:06.979Z,40.70
2022-11-23T22:19:35.733Z,41.68
2022-11-23T22:22:06.180Z,40.28
2022-11-23T22:24:35.465Z,36.90
2022-11-23T22:27:05.884Z,35.00
2022-11-23T22:29:35.076Z,37.45
2022-11-23T22:32:06.074Z,43.30
2022-11-23T22:34:35.820Z,36.05
2022-11-23T22:37:10.217Z,33.83
2022-11-23T22:39:38.799Z,31.62
2022-11-23T22:42:08.211Z,31.77
2022-11-23T22:44:38.253Z,34.30
2022-11-23T22:47:07.255Z,36.23
2022-11-23T22:49:38.253Z,33.60
2022-11-23T22:52:07.157Z,34.15
2022-11-23T22:54:38.247Z,35.03
2022-11-23T22:57:07.110Z,31.57
2022-11-23T22:59:35.851Z,31.07
2022-11-23T23:02:06.499Z,32.80
2022-11-23T23:04:36.737Z,35.92
2022-11-23T23:07:05.443Z,33.05
2022-11-23T23:09:35.115Z,35.05
2022-11-23T23:12:04.456Z,31.15
2022-11-23T23:14:35.442Z,31.30
2022-11-23T23:17:06.144Z,32.03
2022-11-23T23:19:35.505Z,33.28
2022-11-23T23:22:06.236Z,31.70
2022-11-23T23:24:36.247Z,33.33
2022-11-23T23:27:07.168Z,31.20
2022-11-23T23:29:38.303Z,27.87
2022-11-23T23:32:07.512Z,30.70
2022-11-23T23:34:37.346Z,30.57
2022-11-23T23:37:06.689Z,28.45
2022-11-23T23:39:36.184Z,30.20
2022-11-23T23:42:07.305Z,27.67
2022-11-23T23:44:36.502Z,29.30
2022-11-23T23:47:06.121Z,27.07
2022-11-23T23:49:37.100Z,25.90
2022-11-23T23:52:06.564Z,26.90
2022-11-23T23:54:35.702Z,25.90
2022-11-23T23:57:06.026Z,23.12
2022-11-23T23:59:36.535Z,25.37
